createdAt,value
2022-07-27T00:02:09.432Z,17.33
2022-07-27T00:07:12.285Z,17.26
2022-07-27T00:12:15.165Z,17.24
2022-07-27T00:17:23.794Z,17.16
2022-07-27T00:22:26.596Z,17.17
2022-07-27T00:27:29.369Z,17.10
2022-07-27T00:32:33.469Z,17.07
2022-07-27T00:37:36.224Z,17.02
2022-07-27T00:42:39.257Z,17.05
2022-07-27T00:47:43.391Z,17.04
2022-07-27T00:52:46.644Z,17.01
2022-07-27T00:57:58.435Z,16.95
2022-07-27T01:03:08.720Z,17.00
2022-07-27T01:08:14.633Z,16.96
2022-07-27T01:13:17.961Z,16.94
2022-07-27T01:18:32.602Z,16.95
2022-07-27T01:23:36.770Z,16.93
2022-07-27T01:28:39.516Z,16.90
2022-07-27T01:33:42.305Z,16.87
2022-07-27T01:38:47.129Z,16.83
2022-07-27T01:43:49.916Z,16.75
2022-07-27T01:48:52.799Z,16.74
2022-07-27T01:53:56.986Z,16.71
2022-07-27T01:59:00.070Z,16.65
2022-07-27T02:04:02.827Z,16.58
2022-07-27T02:09:06.987Z,16.54
2022-07-27T02:14:09.800Z,16.49
2022-07-27T02:19:12.867Z,16.50
2022-07-27T02:24:17.233Z,16.48
2022-07-27T02:29:20.477Z,16.46
2022-07-27T02:34:23.228Z,16.42
2022-07-27T02:39:27.354Z,16.43
2022-07-27T02:44:30.154Z,16.36
2022-07-27T02:49:33.033Z,16.34
2022-07-27T02:54:37.107Z,16.34
2022-07-27T02:59:39.885Z,16.35
2022-07-27T03:04:42.753Z,16.35
2022-07-27T03:09:52.080Z,16.37
2022-07-27T03:14:55.321Z,16.34
2022-07-27T03:19:58.144Z,16.35
2022-07-27T03:25:02.228Z,16.36
2022-07-27T03:30:07.463Z,16.36
2022-07-27T03:35:11.000Z,16.37
2022-07-27T03:40:15.242Z,16.39
2022-07-27T03:45:18.141Z,16.43
2022-07-27T03:50:26.697Z,16.43
2022-07-27T03:55:31.117Z,16.43
2022-07-27T04:00:33.938Z,16.40
2022-07-27T04:05:36.786Z,16.43
2022-07-27T04:10:41.642Z,16.40
2022-07-27T04:15:45.970Z,16.44
2022-07-27T04:20:48.726Z,16.44
2022-07-27T04:25:52.863Z,16.45
2022-07-27T04:30:55.903Z,16.41
2022-07-27T04:35:58.788Z,16.44
2022-07-27T04:41:03.029Z,16.51
2022-07-27T04:46:09.425Z,16.55
2022-07-27T04:51:15.681Z,16.59
2022-07-27T04:56:21.898Z,16.67
2022-07-27T05:01:33.120Z,16.73
2022-07-27T05:06:37.836Z,16.77
2022-07-27T05:11:41.969Z,16.87
2022-07-27T05:16:54.453Z,16.95
2022-07-27T05:21:57.260Z,17.06
2022-07-27T05:27:01.442Z,17.10
2022-07-27T05:32:05.120Z,17.25
2022-07-27T05:37:07.966Z,17.11
2022-07-27T05:42:12.281Z,17.17
2022-07-27T05:47:15.627Z,17.32
2022-07-27T05:52:18.669Z,17.57
2022-07-27T06:02:50.162Z,17.69
2022-07-27T06:08:03.647Z,17.86
2022-07-27T06:13:09.724Z,17.89
2022-07-27T06:18:18.142Z,18.10
2022-07-27T06:23:20.947Z,18.06
2022-07-27T06:28:25.708Z,18.16
2022-07-27T06:33:29.359Z,18.46
2022-07-27T06:38:33.192Z,18.63
2022-07-27T06:43:37.401Z,18.82
2022-07-27T06:48:40.844Z,18.85
2022-07-27T06:53:43.675Z,18.91
2022-07-27T06:58:47.931Z,19.21
2022-07-27T07:03:50.871Z,19.34
2022-07-27T07:08:53.711Z,19.58
2022-07-27T07:13:58.018Z,19.86
2022-07-27T07:19:00.884Z,20.08
2022-07-27T07:24:03.676Z,19.90
2022-07-27T07:29:09.141Z,20.14
2022-07-27T07:34:12.157Z,20.10
2022-07-27T07:39:15.491Z,20.46
2022-07-27T07:44:19.966Z,20.75
2022-07-27T07:54:50.031Z,21.35
2022-07-27T07:59:54.133Z,21.43
2022-07-27T08:04:56.870Z,21.95
2022-07-27T08:09:59.765Z,22.47
2022-07-27T08:15:04.443Z,22.56
2022-07-27T08:20:08.952Z,22.61
2022-07-27T08:25:12.924Z,22.90
2022-07-27T08:30:17.037Z,22.95
2022-07-27T08:35:26.773Z,21.92
2022-07-27T08:40:40.300Z,21.30
2022-07-27T08:45:47.200Z,21.57
2022-07-27T08:50:50.181Z,22.34
2022-07-27T08:55:53.156Z,23.12
2022-07-27T09:00:58.037Z,23.78
2022-07-27T09:06:00.861Z,23.17
2022-07-27T09:11:14.139Z,22.80
2022-07-27T09:16:20.035Z,22.58
2022-07-27T09:21:25.078Z,21.60
2022-07-27T09:26:32.411Z,21.26
2022-07-27T09:31:44.571Z,21.26
2022-07-27T09:36:53.891Z,21.96
2022-07-27T09:41:59.981Z,22.25
2022-07-27T09:47:21.672Z,22.24
2022-07-27T09:52:25.605Z,23.48
2022-07-27T09:57:28.526Z,22.34
2022-07-27T10:02:32.727Z,22.08
2022-07-27T10:07:35.708Z,21.93
2022-07-27T10:12:38.468Z,23.29
2022-07-27T10:17:44.286Z,24.27
2022-07-27T10:22:51.578Z,23.75
2022-07-27T10:28:10.744Z,22.93
2022-07-27T10:33:16.921Z,24.00
2022-07-27T10:38:21.669Z,23.13
2022-07-27T10:43:24.477Z,22.76
2022-07-27T10:48:46.064Z,22.96
2022-07-27T10:59:14.952Z,23.45
2022-07-27T11:04:20.721Z,23.48
2022-07-27T11:14:48.829Z,22.19
2022-07-27T11:19:57.416Z,22.63
2022-07-27T11:25:01.967Z,23.77
2022-07-27T11:30:05.205Z,23.32
2022-07-27T11:35:19.785Z,23.10
2022-07-27T11:40:53.870Z,23.16
2022-07-27T11:45:45.908Z,23.75
2022-07-27T11:50:59.189Z,25.19
2022-07-27T11:56:02.060Z,25.37
2022-07-27T12:01:04.825Z,24.92
2022-07-27T12:06:09.084Z,24.57
2022-07-27T12:11:11.919Z,26.72
2022-07-27T12:16:20.078Z,26.36
2022-07-27T12:21:25.025Z,28.69
2022-07-27T12:26:35.637Z,26.25
2022-07-27T12:31:48.319Z,25.49
2022-07-27T12:36:52.522Z,28.37
2022-07-27T12:42:05.093Z,30.52
2022-07-27T12:47:27.970Z,31.08
2022-07-27T12:52:33.087Z,32.72
2022-07-27T12:57:54.533Z,34.08
2022-07-27T13:03:00.015Z,34.76
2022-07-27T13:08:05.526Z,34.36
2022-07-27T13:13:09.788Z,36.21
2022-07-27T13:18:12.628Z,34.87
2022-07-27T13:23:17.080Z,32.62
2022-07-27T13:28:20.119Z,29.39
2022-07-27T13:33:22.913Z,28.95
2022-07-27T13:38:28.442Z,31.99
2022-07-27T13:43:31.094Z,30.01
2022-07-27T13:48:34.194Z,28.33
2022-07-27T13:53:38.607Z,27.75
2022-07-27T13:58:42.132Z,27.30
2022-07-27T14:03:44.975Z,27.61
2022-07-27T14:08:50.826Z,26.73
2022-07-27T14:13:53.666Z,26.06
2022-07-27T14:18:56.628Z,26.39
2022-07-27T14:24:01.306Z,25.70
2022-07-27T14:29:04.112Z,25.68
2022-07-27T14:34:06.866Z,25.17
2022-07-27T14:39:11.524Z,24.81
2022-07-27T14:44:14.775Z,25.44
2022-07-27T14:49:22.733Z,25.45
2022-07-27T14:54:27.168Z,27.53
2022-07-27T14:59:30.286Z,26.60
2022-07-27T15:04:33.353Z,25.57
2022-07-27T15:09:37.516Z,26.14
2022-07-27T15:14:40.300Z,30.91
2022-07-27T15:19:43.168Z,27.70
2022-07-27T15:24:47.319Z,26.73
2022-07-27T15:29:50.113Z,27.00
2022-07-27T15:34:52.893Z,25.85
2022-07-27T15:40:01.275Z,29.12
2022-07-27T15:45:04.447Z,37.74
2022-07-27T15:50:08.197Z,40.11
2022-07-27T15:55:16.268Z,42.70
2022-07-27T16:05:48.650Z,45.56
2022-07-27T16:10:52.865Z,42.73
2022-07-27T16:16:13.381Z,34.17
2022-07-27T16:21:16.284Z,31.33
2022-07-27T16:26:27.324Z,38.91
2022-07-27T16:31:30.997Z,42.27
2022-07-27T16:36:38.659Z,42.32
2022-07-27T16:41:43.977Z,43.27
2022-07-27T16:46:48.608Z,38.55
2022-07-27T16:51:51.620Z,35.96
2022-07-27T16:56:56.076Z,36.12
2022-07-27T17:01:58.997Z,34.14
2022-07-27T17:07:01.941Z,32.51
2022-07-27T17:12:06.513Z,32.28
2022-07-27T17:17:09.459Z,30.00
2022-07-27T17:22:12.212Z,31.70
2022-07-27T17:27:16.342Z,30.64
2022-07-27T17:32:19.108Z,28.55
2022-07-27T17:37:21.923Z,28.47
2022-07-27T17:42:27.358Z,27.15
2022-07-27T17:47:30.234Z,26.03
2022-07-27T17:52:38.050Z,25.16
2022-07-27T17:57:42.603Z,24.74
2022-07-27T18:02:46.431Z,24.29
2022-07-27T18:07:51.520Z,23.83
2022-07-27T18:12:55.787Z,23.37
2022-07-27T18:17:58.648Z,23.06
2022-07-27T18:23:01.380Z,22.62
2022-07-27T18:28:05.947Z,22.34
2022-07-27T18:33:08.771Z,21.98
2022-07-27T18:38:13.921Z,21.56
2022-07-27T18:43:18.467Z,21.18
2022-07-27T18:48:21.318Z,20.91
2022-07-27T18:53:24.187Z,20.61
2022-07-27T18:58:28.590Z,20.37
2022-07-27T19:03:32.210Z,20.09
2022-07-27T19:08:35.016Z,19.87
2022-07-27T19:13:39.180Z,19.69
2022-07-27T19:18:42.061Z,19.44
2022-07-27T19:23:44.853Z,19.26
2022-07-27T19:28:49.055Z,19.11
2022-07-27T19:33:52.446Z,18.96
2022-07-27T19:38:55.193Z,18.77
2022-07-27T19:43:59.321Z,18.61
2022-07-27T19:49:02.164Z,18.46
2022-07-27T19:54:05.448Z,18.30
2022-07-27T19:59:09.833Z,18.16
2022-07-27T20:04:12.801Z,18.05
2022-07-27T20:09:16.572Z,17.95
2022-07-27T20:14:20.886Z,17.79
2022-07-27T20:19:23.626Z,17.59
2022-07-27T20:24:26.505Z,17.43
2022-07-27T20:29:31.319Z,17.23
2022-07-27T20:34:35.991Z,17.00
2022-07-27T20:39:38.817Z,16.83
2022-07-27T20:44:43.456Z,16.78
2022-07-27T20:49:46.319Z,16.71
2022-07-27T20:54:49.062Z,16.62
2022-07-27T20:59:53.220Z,16.58
2022-07-27T21:04:55.969Z,16.55
2022-07-27T21:09:58.694Z,16.40
2022-07-27T21:15:02.787Z,16.26
2022-07-27T21:20:06.581Z,16.08
2022-07-27T21:25:11.058Z,15.91
2022-07-27T21:30:18.135Z,15.92
2022-07-27T21:35:22.059Z,15.75
2022-07-27T21:40:24.905Z,15.67
2022-07-27T21:45:29.290Z,15.55
2022-07-27T21:50:32.044Z,15.45
2022-07-27T21:55:34.949Z,15.32
2022-07-27T22:00:39.737Z,15.19
2022-07-27T22:05:42.652Z,15.05
2022-07-27T22:10:45.522Z,15.02
2022-07-27T22:15:50.401Z,14.91
2022-07-27T22:20:53.344Z,14.78
2022-07-27T22:25:56.872Z,14.67
2022-07-27T22:31:21.179Z,14.52
2022-07-27T22:36:26.618Z,14.43
2022-07-27T22:41:29.580Z,14.40
2022-07-27T22:46:33.910Z,14.35
2022-07-27T22:51:49.609Z,14.23
2022-07-27T22:56:55.571Z,14.13
2022-07-27T23:01:59.898Z,14.04
2022-07-27T23:07:02.726Z,13.95
2022-07-27T23:12:06.263Z,13.84
2022-07-27T23:17:10.344Z,13.68
2022-07-27T23:22:13.131Z,13.64
2022-07-27T23:27:20.026Z,13.56
2022-07-27T23:32:24.136Z,13.48
2022-07-27T23:37:27.131Z,13.41
2022-07-27T23:42:29.872Z,13.27
2022-07-27T23:47:34.055Z,13.20
2022-07-27T23:52:37.048Z,13.17
2022-07-27T23:57:39.769Z,13.03
